Time;durP1;ratioP1;P1;durP2;ratioP2;P2;SDS_P1;SDS_P2;PMS_P1;PMS_P2;Temp;Humidity;BMP_temperature;BMP_pressure;BME280_temperature;BME280_humidity;BME280_pressure;Samples;Min_cycle;Max_cycle;Signal;HPM_P1;HPM_P2
2022/07/25 00:01:02;;;;;;;4.13;3.70;;;21.90;99.90;;;;;;4855749;29;39031;-86
2022/07/25 00:03:28;;;;;;;4.00;3.60;;;21.80;99.90;;;;;;4839268;29;37069;-85
2022/07/25 00:05:54;;;;;;;3.55;3.25;;;21.80;99.90;;;;;;4839988;29;37491;-86
2022/07/25 00:08:21;;;;;;;5.15;3.97;;;21.80;99.90;;;;;;4856564;29;39478;-86
2022/07/25 00:10:47;;;;;;;4.15;3.58;;;21.70;99.90;;;;;;4840155;29;37968;-85
2022/07/25 00:13:13;;;;;;;5.15;4.00;;;21.60;99.90;;;;;;4839289;29;37155;-85
2022/07/25 00:15:39;;;;;;;4.95;3.63;;;21.60;99.90;;;;;;4840017;29;37093;-85
2022/07/25 00:18:05;;;;;;;4.47;3.63;;;21.70;99.90;;;;;;4853673;29;38759;-86
2022/07/25 00:20:31;;;;;;;4.25;3.85;;;21.70;99.90;;;;;;4839536;29;37584;-86
2022/07/25 00:22:57;;;;;;;5.47;3.78;;;21.70;99.90;;;;;;4839028;29;36775;-86
2022/07/25 00:25:23;;;;;;;5.60;3.78;;;21.70;99.90;;;;;;4855458;29;37177;-86
2022/07/25 00:27:49;;;;;;;9.57;4.32;;;21.60;99.90;;;;;;4856025;29;39311;-86
2022/07/25 00:30:15;;;;;;;5.72;4.07;;;21.50;99.90;;;;;;4846726;29;37086;-86
2022/07/25 00:32:42;;;;;;;4.30;3.90;;;21.50;99.90;;;;;;4857192;29;36743;-86
2022/07/25 00:35:08;;;;;;;4.35;3.90;;;21.50;99.90;;;;;;4855583;29;37149;-85
2022/07/25 00:37:34;;;;;;;4.40;3.78;;;21.60;99.90;;;;;;4858666;29;39039;-85
2022/07/25 00:40:00;;;;;;;5.57;4.20;;;21.60;99.90;;;;;;4873730;29;38576;-85
2022/07/25 00:42:27;;;;;;;4.15;3.78;;;21.50;99.90;;;;;;4857391;29;38351;-86
2022/07/25 00:44:53;;;;;;;7.60;3.70;;;21.50;99.90;;;;;;4856683;29;37365;-86
2022/07/25 00:47:19;;;;;;;4.47;4.00;;;21.50;99.90;;;;;;4874416;29;38859;-85
2022/07/25 00:49:45;;;;;;;5.13;4.13;;;21.60;99.90;;;;;;4865545;29;37812;-85
2022/07/25 00:52:12;;;;;;;5.00;4.20;;;21.50;99.90;;;;;;4852826;29;38422;-85
2022/07/25 00:54:38;;;;;;;4.50;4.10;;;21.50;99.90;;;;;;4855198;29;37499;-86
2022/07/25 00:57:04;;;;;;;6.18;3.75;;;21.40;99.90;;;;;;4855143;29;39210;-86
2022/07/25 00:59:30;;;;;;;4.38;3.97;;;21.40;99.90;;;;;;4870468;29;39724;-85
2022/07/25 01:01:56;;;;;;;6.47;4.90;;;21.40;99.90;;;;;;4857869;29;37004;-86
2022/07/25 01:04:23;;;;;;;4.60;4.20;;;21.40;99.90;;;;;;4873550;29;36795;-86
2022/07/25 01:06:49;;;;;;;4.30;3.83;;;21.40;99.90;;;;;;4857418;29;37767;-85
2022/07/25 01:09:16;;;;;;;4.82;4.07;;;21.40;99.90;;;;;;4857734;29;38276;-85
2022/07/25 01:11:42;;;;;;;6.97;4.38;;;21.40;99.90;;;;;;4856480;29;38048;-85
2022/07/25 01:14:08;;;;;;;4.45;4.05;;;21.30;99.90;;;;;;4857313;29;37145;-85
2022/07/25 01:16:34;;;;;;;5.78;3.97;;;21.40;99.90;;;;;;4875084;29;38950;-86
2022/07/25 01:19:04;;;;;;;5.53;3.83;;;21.40;99.90;;;;;;4858087;29;37495;-86
2022/07/25 01:21:30;;;;;;;4.72;3.90;;;21.40;99.90;;;;;;4856089;29;47698;-86
2022/07/25 01:23:56;;;;;;;4.63;3.70;;;21.30;99.90;;;;;;4856650;29;36724;-86
2022/07/25 01:26:22;;;;;;;6.10;4.20;;;21.30;99.90;;;;;;4857625;29;39024;-85
2022/07/25 01:28:48;;;;;;;4.20;3.80;;;21.30;99.90;;;;;;4857014;29;37388;-85
2022/07/25 01:31:14;;;;;;;4.53;4.07;;;21.30;99.90;;;;;;4855053;29;38366;-85
2022/07/25 01:33:40;;;;;;;6.10;4.15;;;21.30;99.90;;;;;;4857552;29;36319;-85
2022/07/25 01:36:07;;;;;;;5.00;4.20;;;21.20;99.90;;;;;;4873842;29;39329;-85
2022/07/25 01:38:33;;;;;;;4.60;4.20;;;21.20;99.90;;;;;;4856996;29;38769;-85
2022/07/25 01:40:59;;;;;;;6.85;4.30;;;21.20;99.90;;;;;;4858315;29;38163;-85
2022/07/25 01:43:25;;;;;;;5.55;4.00;;;21.10;99.90;;;;;;4873648;29;37869;-85
2022/07/25 01:45:51;;;;;;;4.60;4.20;;;21.10;99.90;;;;;;4857190;29;38187;-86
2022/07/25 01:48:17;;;;;;;6.78;4.50;;;21.10;99.90;;;;;;4853094;29;37175;-86
2022/07/25 01:50:43;;;;;;;4.38;3.95;;;21.20;99.90;;;;;;4857303;29;37011;-86
2022/07/25 01:53:09;;;;;;;4.57;3.85;;;21.20;99.90;;;;;;4856871;29;37117;-86
2022/07/25 01:55:36;;;;;;;5.05;4.43;;;21.20;99.90;;;;;;4856467;29;39644;-85
2022/07/25 01:58:02;;;;;;;4.90;4.00;;;21.10;99.90;;;;;;4859558;29;38376;-85
2022/07/25 02:00:28;;;;;;;3.92;3.53;;;21.10;99.90;;;;;;4858151;29;37274;-86
2022/07/25 02:05:39;;;;;;;5.32;4.07;;;21.00;99.90;;;;;;4869358;29;49534;-86
2022/07/25 02:08:05;;;;;;;4.68;4.28;;;21.00;99.90;;;;;;4855736;29;39149;-85
2022/07/25 02:10:31;;;;;;;5.35;4.28;;;21.10;99.90;;;;;;4857721;29;38249;-86
2022/07/25 02:12:59;;;;;;;4.65;4.15;;;21.10;99.90;;;;;;4856758;29;37338;-85
2022/07/25 02:15:25;;;;;;;6.00;4.15;;;21.00;99.90;;;;;;4857125;29;39074;-86
2022/07/25 02:17:51;;;;;;;7.05;4.80;;;21.00;99.90;;;;;;4856207;29;37600;-86
2022/07/25 02:20:17;;;;;;;5.22;4.55;;;21.00;99.90;;;;;;4857112;29;37006;-86
2022/07/25 02:22:45;;;;;;;6.25;4.50;;;21.00;99.90;;;;;;4856185;29;37518;-85
2022/07/25 02:25:11;;;;;;;5.45;4.40;;;21.00;99.90;;;;;;4855666;29;37690;-86
2022/07/25 02:27:38;;;;;;;5.45;4.13;;;21.00;99.90;;;;;;4856488;29;40052;-85
2022/07/25 02:30:05;;;;;;;5.60;4.45;;;21.00;99.90;;;;;;4846197;29;37249;-86
2022/07/25 02:32:31;;;;;;;7.00;4.22;;;21.00;99.90;;;;;;4856032;29;36053;-86
2022/07/25 02:34:57;;;;;;;4.63;4.22;;;21.10;99.90;;;;;;4856394;29;39382;-86
2022/07/25 02:37:23;;;;;;;5.95;4.32;;;21.10;99.90;;;;;;4868738;29;38411;-86
2022/07/25 02:39:49;;;;;;;4.38;4.05;;;21.10;99.90;;;;;;4872843;29;39027;-85
2022/07/25 02:42:15;;;;;;;7.53;4.93;;;21.10;99.90;;;;;;4855427;29;36254;-85
2022/07/25 02:44:41;;;;;;;4.82;4.43;;;21.20;99.90;;;;;;4855385;29;37691;-85
2022/07/25 02:47:08;;;;;;;5.00;4.47;;;21.10;99.90;;;;;;4853582;29;37429;-86
2022/07/25 02:49:34;;;;;;;5.35;4.85;;;21.10;99.90;;;;;;4856245;29;36707;-86
2022/07/25 02:52:00;;;;;;;5.00;4.35;;;21.10;99.90;;;;;;4856308;29;36212;-86
2022/07/25 02:54:26;;;;;;;5.75;5.07;;;21.10;99.90;;;;;;4855662;29;39238;-86
2022/07/25 02:56:52;;;;;;;4.90;4.40;;;21.10;99.90;;;;;;4855974;29;37380;-86
2022/07/25 02:59:18;;;;;;;5.40;4.88;;;21.10;99.90;;;;;;4870664;29;38400;-86
2022/07/25 03:01:44;;;;;;;6.40;4.65;;;21.10;99.90;;;;;;4857117;29;37562;-85
2022/07/25 03:04:10;;;;;;;6.53;5.50;;;21.00;99.90;;;;;;4855444;29;38117;-86
2022/07/25 03:06:36;;;;;;;5.95;5.07;;;21.00;99.90;;;;;;4870190;29;38178;-86
2022/07/25 03:09:03;;;;;;;7.82;5.72;;;21.00;99.90;;;;;;4872818;29;39677;-85
2022/07/25 03:11:29;;;;;;;5.28;4.65;;;21.00;99.90;;;;;;4857106;29;37058;-86
2022/07/25 03:13:56;;;;;;;5.82;4.78;;;21.00;99.90;;;;;;4855884;29;37620;-86
2022/07/25 03:16:23;;;;;;;5.25;4.47;;;21.00;99.90;;;;;;4845508;29;37897;-86
2022/07/25 03:18:49;;;;;;;5.40;4.30;;;21.00;99.90;;;;;;4856021;29;37135;-86
2022/07/25 03:21:15;;;;;;;7.10;4.20;;;21.00;99.90;;;;;;4855302;29;36298;-86
2022/07/25 03:23:41;;;;;;;5.10;4.00;;;21.10;99.90;;;;;;4856462;29;38036;-86
2022/07/25 03:26:07;;;;;;;4.32;3.92;;;21.10;99.90;;;;;;4854459;29;38410;-86
2022/07/25 03:28:33;;;;;;;4.63;4.03;;;21.10;99.90;;;;;;4855697;29;37734;-86
2022/07/25 03:30:59;;;;;;;5.43;3.55;;;21.10;99.90;;;;;;4856394;29;37415;-86
2022/07/25 03:33:26;;;;;;;5.43;3.60;;;21.10;99.90;;;;;;4870214;29;38916;-86
2022/07/25 03:35:52;;;;;;;4.20;3.80;;;21.20;99.90;;;;;;4854644;29;37289;-86
2022/07/25 03:38:18;;;;;;;5.03;3.15;;;21.20;99.90;;;;;;4856619;29;37509;-85
2022/07/25 03:40:44;;;;;;;3.85;3.17;;;21.20;99.90;;;;;;4856335;29;36281;-86
2022/07/25 03:43:10;;;;;;;6.40;3.13;;;21.30;99.90;;;;;;4869014;29;39463;-86
2022/07/25 03:45:36;;;;;;;4.05;2.90;;;21.30;99.90;;;;;;4855497;29;37158;-86
2022/07/25 03:48:02;;;;;;;4.90;2.83;;;21.40;99.90;;;;;;4856249;29;37613;-85
2022/07/25 03:50:28;;;;;;;3.72;3.17;;;21.40;99.90;;;;;;4872752;29;37298;-86
2022/07/25 03:52:55;;;;;;;3.75;3.03;;;21.40;99.90;;;;;;4871572;29;38521;-85
2022/07/25 03:55:21;;;;;;;3.78;2.88;;;21.40;99.90;;;;;;4854307;29;37677;-85
2022/07/25 03:57:47;;;;;;;3.90;3.05;;;21.40;99.90;;;;;;4857763;29;37053;-86
2022/07/25 04:00:14;;;;;;;6.38;3.15;;;21.40;99.90;;;;;;4856987;29;35847;-86
2022/07/25 04:02:40;;;;;;;7.97;3.03;;;21.40;99.90;;;;;;4874176;29;39498;-85
2022/07/25 04:05:07;;;;;;;4.57;2.80;;;21.40;99.90;;;;;;4876799;29;38110;-86
2022/07/25 04:07:34;;;;;;;5.13;2.67;;;21.40;99.90;;;;;;4876315;29;39069;-85
2022/07/25 04:10:01;;;;;;;2.85;2.28;;;21.40;99.90;;;;;;4856609;29;37738;-85
2022/07/25 04:12:27;;;;;;;3.17;2.50;;;21.30;99.90;;;;;;4875850;29;38728;-86
2022/07/25 04:14:53;;;;;;;4.75;2.55;;;21.40;99.90;;;;;;4859599;29;38421;-85
2022/07/25 04:17:20;;;;;;;3.22;2.70;;;21.30;99.90;;;;;;4855662;29;37065;-85
2022/07/25 04:19:46;;;;;;;5.65;2.72;;;21.30;99.90;;;;;;4876436;29;37882;-85
2022/07/25 04:22:12;;;;;;;3.70;2.40;;;21.30;99.90;;;;;;4875758;29;38380;-85
2022/07/25 04:24:38;;;;;;;4.63;2.63;;;21.20;99.90;;;;;;4858225;29;37526;-86
2022/07/25 04:27:04;;;;;;;3.10;2.45;;;21.20;99.90;;;;;;4857687;29;37932;-85
2022/07/25 04:29:30;;;;;;;3.03;2.30;;;21.20;99.90;;;;;;4860994;29;36516;-86
2022/07/25 04:31:56;;;;;;;4.32;2.00;;;21.20;99.90;;;;;;4858606;29;37449;-86
2022/07/25 04:34:22;;;;;;;3.40;1.85;;;21.20;99.90;;;;;;4858349;29;37295;-85
2022/07/25 04:36:49;;;;;;;2.42;1.73;;;21.20;99.90;;;;;;4858671;29;37158;-85
2022/07/25 04:39:15;;;;;;;1.67;1.58;;;21.20;99.90;;;;;;4857702;29;37628;-84
2022/07/25 04:41:41;;;;;;;2.25;1.90;;;21.20;99.90;;;;;;4857416;29;37832;-84
2022/07/25 04:44:07;;;;;;;2.08;1.75;;;21.30;99.90;;;;;;4858252;29;37214;-85
2022/07/25 04:46:33;;;;;;;3.15;1.60;;;21.40;99.90;;;;;;4858760;29;37877;-85
2022/07/25 04:48:59;;;;;;;2.40;1.80;;;21.30;99.90;;;;;;4875230;29;37080;-84
2022/07/25 04:51:25;;;;;;;2.33;1.70;;;21.40;99.90;;;;;;4856133;29;37955;-86
2022/07/25 04:53:51;;;;;;;2.03;1.50;;;21.40;99.90;;;;;;4871421;29;38589;-85
2022/07/25 04:56:18;;;;;;;1.60;1.50;;;21.40;99.90;;;;;;4856963;29;36988;-84
2022/07/25 04:58:44;;;;;;;4.28;1.92;;;21.40;99.90;;;;;;4857879;29;37426;-85
2022/07/25 05:01:10;;;;;;;3.53;1.55;;;21.40;99.90;;;;;;4855382;29;37632;-83
2022/07/25 05:03:36;;;;;;;3.13;1.85;;;21.40;99.90;;;;;;4873410;29;39150;-83
2022/07/25 05:06:02;;;;;;;2.00;1.45;;;21.40;99.90;;;;;;4873511;29;37714;-85
2022/07/25 05:08:29;;;;;;;2.88;1.35;;;21.40;99.90;;;;;;4874197;29;37389;-85
2022/07/25 05:10:55;;;;;;;3.33;1.70;;;21.40;99.90;;;;;;4857678;29;37998;-85
2022/07/25 05:13:21;;;;;;;3.78;1.40;;;21.40;99.90;;;;;;4856575;29;39444;-85
2022/07/25 05:15:47;;;;;;;2.53;1.30;;;21.40;99.90;;;;;;4857580;29;37893;-85
2022/07/25 05:18:13;;;;;;;4.13;1.30;;;21.40;99.90;;;;;;4854383;29;37552;-85
2022/07/25 05:20:40;;;;;;;4.03;1.55;;;21.40;99.90;;;;;;4872891;29;39824;-85
2022/07/25 05:23:06;;;;;;;2.53;1.50;;;21.40;99.90;;;;;;4855914;29;38023;-85
2022/07/25 05:25:32;;;;;;;3.33;1.50;;;21.40;99.90;;;;;;4857976;29;36971;-86
2022/07/25 05:27:58;;;;;;;3.88;1.60;;;21.50;99.90;;;;;;4855856;29;36020;-84
2022/07/25 05:30:24;;;;;;;5.50;1.70;;;21.50;99.90;;;;;;4857114;29;37394;-83
2022/07/25 05:32:50;;;;;;;3.90;1.45;;;21.50;99.90;;;;;;4856603;29;37322;-83
2022/07/25 05:35:16;;;;;;;3.67;1.33;;;21.50;99.90;;;;;;4857804;29;38504;-84
2022/07/25 05:37:42;;;;;;;4.25;1.30;;;21.40;99.90;;;;;;4857014;29;36910;-84
2022/07/25 05:40:09;;;;;;;3.30;1.40;;;21.50;99.90;;;;;;4855518;29;38850;-83
2022/07/25 05:42:35;;;;;;;3.80;1.30;;;21.60;99.90;;;;;;4856956;29;37474;-85
2022/07/25 05:45:02;;;;;;;4.30;1.70;;;21.60;99.90;;;;;;4858434;29;37717;-83
2022/07/25 05:47:28;;;;;;;3.10;1.38;;;21.60;99.90;;;;;;4856203;29;36299;-84
2022/07/25 05:49:54;;;;;;;4.45;1.20;;;21.60;99.90;;;;;;4854678;29;37686;-85
2022/07/25 05:52:20;;;;;;;3.92;1.30;;;21.60;99.90;;;;;;4873174;29;39353;-85
2022/07/25 05:54:46;;;;;;;3.65;1.85;;;21.60;99.90;;;;;;4860789;29;38577;-84
2022/07/25 05:57:12;;;;;;;5.05;1.40;;;21.70;99.90;;;;;;4857455;29;37174;-85
2022/07/25 05:59:38;;;;;;;6.45;1.50;;;21.70;99.90;;;;;;4855489;29;37841;-85
2022/07/25 06:02:04;;;;;;;2.92;1.23;;;21.80;99.90;;;;;;4856121;29;38123;-84
2022/07/25 06:04:30;;;;;;;5.15;1.40;;;21.70;99.90;;;;;;4857303;29;37057;-85
2022/07/25 06:06:56;;;;;;;6.53;1.50;;;21.70;99.90;;;;;;4855804;29;37476;-84
2022/07/25 06:09:23;;;;;;;6.75;1.48;;;21.70;99.90;;;;;;4856344;29;38452;-86
2022/07/25 06:11:49;;;;;;;4.25;1.70;;;21.80;99.90;;;;;;4878381;29;38574;-83
2022/07/25 06:14:15;;;;;;;3.63;1.50;;;21.80;99.90;;;;;;4854994;29;37113;-84
2022/07/25 06:16:42;;;;;;;9.40;1.85;;;21.80;99.90;;;;;;4855242;29;36594;-84
2022/07/25 06:19:08;;;;;;;8.85;1.70;;;21.80;99.90;;;;;;4856005;29;37750;-84
2022/07/25 06:21:35;;;;;;;9.45;2.20;;;21.80;99.90;;;;;;4857123;29;38603;-83
2022/07/25 06:24:02;;;;;;;6.03;1.67;;;21.70;99.90;;;;;;4853453;29;37734;-83
2022/07/25 06:26:28;;;;;;;8.10;1.65;;;21.70;99.90;;;;;;4855350;29;47179;-83
2022/07/25 06:28:55;;;;;;;3.70;1.42;;;21.70;99.90;;;;;;4856832;29;39217;-82
2022/07/25 06:31:21;;;;;;;8.40;2.13;;;21.70;99.90;;;;;;4855377;29;37359;-84
2022/07/25 06:33:47;;;;;;;8.07;2.08;;;21.70;99.90;;;;;;4854916;29;38206;-84
2022/07/25 06:36:13;;;;;;;5.78;1.70;;;21.60;99.90;;;;;;4855312;29;37360;-83
2022/07/25 06:38:39;;;;;;;6.97;2.70;;;21.60;99.90;;;;;;4872957;29;38886;-85
2022/07/25 06:41:05;;;;;;;7.68;1.80;;;21.60;99.90;;;;;;4871179;29;38919;-84
2022/07/25 06:43:34;;;;;;;6.40;1.50;;;21.50;99.90;;;;;;4856624;29;38984;-85
2022/07/25 06:46:01;;;;;;;6.45;1.30;;;21.50;99.90;;;;;;4856182;29;36585;-84
2022/07/25 06:48:29;;;;;;;7.57;2.53;;;21.50;99.90;;;;;;4865721;29;48172;-84
2022/07/25 06:50:55;;;;;;;8.85;2.28;;;21.50;99.90;;;;;;4854994;29;37250;-85
2022/07/25 06:53:21;;;;;;;8.02;1.27;;;21.60;99.90;;;;;;4871790;29;38795;-85
2022/07/25 06:55:47;;;;;;;7.22;1.60;;;21.80;99.90;;;;;;4856930;29;36417;-84
2022/07/25 06:58:13;;;;;;;3.83;1.00;;;21.80;99.90;;;;;;4854754;29;36965;-84
2022/07/25 07:00:39;;;;;;;8.80;1.50;;;21.80;99.90;;;;;;4855902;29;38775;-84
2022/07/25 07:03:06;;;;;;;7.43;1.80;;;21.80;99.90;;;;;;4853925;29;36690;-84
2022/07/25 07:05:35;;;;;;;4.63;1.30;;;21.80;99.90;;;;;;4855089;29;36469;-84
2022/07/25 07:08:02;;;;;;;5.93;1.42;;;21.80;99.90;;;;;;4853401;29;38041;-84
2022/07/25 07:10:28;;;;;;;7.93;1.50;;;21.70;99.90;;;;;;4850852;29;48382;-82
2022/07/25 07:13:05;;;;;;;7.03;1.90;;;21.60;99.90;;;;;;4853587;29;37323;-84
2022/07/25 07:15:31;;;;;;;3.72;1.42;;;21.50;99.90;;;;;;4857014;29;46899;-84
2022/07/25 07:17:57;;;;;;;4.80;1.17;;;21.60;99.90;;;;;;4855202;29;37663;-84
2022/07/25 07:20:23;;;;;;;8.95;1.73;;;21.70;99.90;;;;;;4853394;29;38664;-85
2022/07/25 07:22:49;;;;;;;3.88;1.48;;;21.90;99.90;;;;;;4854124;29;37030;-83
2022/07/25 07:25:17;;;;;;;5.22;1.60;;;21.90;99.90;;;;;;4855563;29;36007;-83
2022/07/25 07:27:44;;;;;;;8.10;1.73;;;21.70;99.90;;;;;;4870597;29;38912;-83
2022/07/25 07:30:13;;;;;;;7.43;1.90;;;21.70;99.90;;;;;;4855026;29;38382;-84
2022/07/25 07:32:40;;;;;;;5.78;1.48;;;21.80;99.90;;;;;;4858884;29;38670;-84
2022/07/25 07:35:08;;;;;;;7.18;1.88;;;21.90;99.90;;;;;;4857593;29;20129;-84
2022/07/25 07:37:34;;;;;;;9.05;2.03;;;21.90;99.90;;;;;;4862601;29;39037;-83
2022/07/25 07:40:00;;;;;;;7.95;1.70;;;21.90;99.90;;;;;;4858972;29;38870;-84
2022/07/25 07:42:26;;;;;;;6.15;1.83;;;21.70;99.90;;;;;;4874332;29;39138;-83
2022/07/25 07:44:52;;;;;;;7.90;1.98;;;21.60;99.90;;;;;;4856563;29;36413;-83
2022/07/25 07:47:20;;;;;;;8.15;2.00;;;21.60;99.90;;;;;;4858137;29;37736;-84
2022/07/25 07:49:46;;;;;;;5.95;1.50;;;21.90;99.90;;;;;;4859552;29;37365;-83
2022/07/25 07:52:12;;;;;;;8.30;1.70;;;22.40;99.90;;;;;;4874163;29;38234;-84
2022/07/25 07:57:23;;;;;;;4.47;1.38;;;23.40;99.90;;;;;;4876722;29;38939;-84
2022/07/25 07:59:49;;;;;;;6.00;1.80;;;23.30;99.90;;;;;;4877807;29;38291;-85
2022/07/25 08:02:15;;;;;;;5.03;1.83;;;23.20;99.90;;;;;;4858481;29;36776;-83
2022/07/25 08:04:41;;;;;;;6.38;2.58;;;23.50;99.90;;;;;;4875986;29;36790;-83
2022/07/25 08:07:07;;;;;;;4.38;1.45;;;23.40;99.90;;;;;;4859156;29;37605;-83
2022/07/25 08:09:33;;;;;;;4.68;1.38;;;23.40;99.90;;;;;;4861075;29;37626;-85
2022/07/25 08:11:59;;;;;;;5.85;1.63;;;23.10;99.90;;;;;;4859783;29;37644;-86
2022/07/25 08:14:25;;;;;;;9.23;1.90;;;23.00;99.90;;;;;;4858136;29;35733;-84
2022/07/25 08:16:51;;;;;;;3.95;1.65;;;22.80;99.90;;;;;;4875432;29;38572;-83
2022/07/25 08:19:17;;;;;;;7.47;1.70;;;22.70;99.90;;;;;;4859317;29;36939;-85
2022/07/25 08:21:44;;;;;;;5.07;1.83;;;22.80;99.90;;;;;;4858351;29;37225;-84
2022/07/25 08:24:10;;;;;;;4.68;1.42;;;23.20;99.90;;;;;;4872728;29;37269;-84
2022/07/25 08:26:36;;;;;;;7.78;1.52;;;23.70;99.90;;;;;;4875527;29;38621;-83
2022/07/25 08:29:02;;;;;;;6.35;1.65;;;24.10;99.90;;;;;;4859587;29;37261;-83
2022/07/25 08:31:28;;;;;;;3.30;1.60;;;24.00;99.90;;;;;;4858903;29;37122;-85
2022/07/25 08:33:55;;;;;;;5.60;1.65;;;24.10;99.90;;;;;;4876980;29;37254;-85
2022/07/25 08:36:21;;;;;;;5.25;1.52;;;24.00;99.90;;;;;;4876673;29;39141;-85
2022/07/25 08:38:47;;;;;;;4.70;1.63;;;24.30;99.90;;;;;;4856907;29;38372;-85
2022/07/25 08:41:13;;;;;;;4.07;1.60;;;24.50;99.90;;;;;;4875325;29;38694;-84
2022/07/25 08:43:39;;;;;;;7.18;2.15;;;24.60;99.90;;;;;;4876116;29;38056;-85
2022/07/25 08:46:06;;;;;;;6.18;1.30;;;24.70;99.90;;;;;;4868024;29;40297;-81
2022/07/25 08:48:32;;;;;;;6.88;1.60;;;25.00;99.90;;;;;;4858208;29;37550;-84
2022/07/25 08:51:00;;;;;;;7.38;1.70;;;25.20;99.90;;;;;;4856769;29;40232;-81
2022/07/25 08:53:28;;;;;;;7.93;2.05;;;24.90;99.90;;;;;;4858439;29;47052;-81
2022/07/25 08:55:54;;;;;;;7.13;1.50;;;24.50;99.90;;;;;;4875888;29;38497;-81
2022/07/25 08:58:20;;;;;;;7.13;1.90;;;24.40;99.90;;;;;;4854116;29;37397;-81
2022/07/25 09:00:46;;;;;;;5.20;2.15;;;24.20;99.90;;;;;;4857665;29;37283;-81
2022/07/25 09:03:12;;;;;;;10.82;1.90;;;23.90;99.90;;;;;;4862876;29;36199;-83
2022/07/25 09:05:39;;;;;;;6.22;2.33;;;23.80;99.90;;;;;;4855897;29;37641;-81
2022/07/25 09:08:10;;;;;;;8.45;2.58;;;23.90;99.90;;;;;;4874195;29;38587;-81
2022/07/25 09:10:38;;;;;;;6.88;2.00;;;23.80;99.90;;;;;;4858185;29;37178;-81
2022/07/25 09:13:07;;;;;;;5.82;1.52;;;23.70;99.90;;;;;;4854508;29;37444;-81
2022/07/25 09:15:35;;;;;;;8.23;2.20;;;23.60;99.90;;;;;;4857509;29;37804;-81
2022/07/25 09:18:08;;;;;;;9.20;2.10;;;23.70;99.90;;;;;;4859390;29;37846;-80
2022/07/25 09:20:45;;;;;;;10.25;2.28;;;23.70;99.90;;;;;;4857795;29;37316;-81
2022/07/25 09:23:35;;;;;;;12.18;2.70;;;23.50;99.90;;;;;;4855729;29;36469;-80
2022/07/25 09:26:12;;;;;;;9.30;2.33;;;23.20;99.90;;;;;;4855459;29;40558;-83
2022/07/25 09:28:43;;;;;;;13.95;3.05;;;23.00;99.90;;;;;;4857494;29;37391;-81
2022/07/25 09:31:10;;;;;;;8.43;2.35;;;23.00;99.90;;;;;;4870887;29;38259;-83
2022/07/25 09:33:46;;;;;;;8.82;2.53;;;23.00;99.90;;;;;;4871385;29;37582;-82
2022/07/25 09:36:13;;;;;;;9.18;2.50;;;22.90;99.90;;;;;;4857982;29;39086;-82
2022/07/25 09:38:39;;;;;;;8.77;2.80;;;22.90;99.90;;;;;;4874933;29;38371;-82
2022/07/25 09:41:06;;;;;;;10.10;2.83;;;22.80;99.90;;;;;;4855850;29;37074;-81
2022/07/25 09:43:40;;;;;;;10.60;2.70;;;23.20;99.90;;;;;;4858307;29;36595;-81
2022/07/25 09:46:07;;;;;;;10.77;3.53;;;23.30;99.90;;;;;;4873759;29;38726;-80
2022/07/25 09:48:35;;;;;;;8.70;2.53;;;23.70;99.90;;;;;;4873717;29;38705;-80
2022/07/25 09:51:02;;;;;;;12.18;3.00;;;24.10;99.90;;;;;;4873786;29;38079;-81
2022/07/25 09:53:28;;;;;;;9.27;2.88;;;24.20;99.90;;;;;;4857124;29;47608;-82
2022/07/25 09:55:56;;;;;;;11.73;2.85;;;23.90;99.90;;;;;;4856800;29;37370;-81
2022/07/25 09:58:23;;;;;;;9.88;2.75;;;23.80;99.90;;;;;;4854544;29;38057;-81
2022/07/25 10:00:52;;;;;;;12.93;3.08;;;23.90;99.90;;;;;;4872701;29;38209;-80
2022/07/25 10:03:45;;;;;;;9.50;2.33;;;23.90;99.90;;;;;;4854824;29;37372;-81
2022/07/25 10:06:20;;;;;;;;;;;23.80;99.90;;;;;;4856858;29;37390;-82
2022/07/25 10:08:47;;;;;;;8.45;2.40;;;23.80;99.90;;;;;;4866880;29;37409;-82
2022/07/25 10:11:25;;;;;;;9.38;2.95;;;23.70;99.90;;;;;;4871956;29;38867;-81
2022/07/25 10:13:52;;;;;;;11.35;2.80;;;23.60;99.90;;;;;;4857101;29;36375;-81
2022/07/25 10:16:23;;;;;;;8.15;2.55;;;23.50;99.90;;;;;;4872372;29;38307;-81
2022/07/25 10:18:52;;;;;;;10.10;2.63;;;23.70;99.90;;;;;;4873416;29;40705;-81
2022/07/25 10:21:20;;;;;;;7.50;2.20;;;24.00;99.90;;;;;;4872557;29;39162;-81
2022/07/25 10:23:57;;;;;;;11.25;2.63;;;23.80;99.90;;;;;;4856205;29;36220;-81
2022/07/25 10:26:24;;;;;;;8.38;2.45;;;23.40;99.90;;;;;;4852325;29;38071;-81
2022/07/25 10:28:52;;;;;;;9.52;2.78;;;23.10;99.90;;;;;;4858428;29;37365;-82
2022/07/25 10:31:34;;;;;;;7.00;2.28;;;22.80;99.90;;;;;;4871408;29;38757;-82
2022/07/25 10:34:05;;;;;;;6.28;2.22;;;22.70;99.90;;;;;;4872315;29;38333;-81
2022/07/25 10:36:42;;;;;;;9.43;2.80;;;22.80;99.90;;;;;;4872784;29;48888;-81
2022/07/25 10:39:10;;;;;;;10.55;2.70;;;23.00;99.90;;;;;;4873897;29;39447;-81
2022/07/25 10:42:01;;;;;;;7.25;2.25;;;23.10;99.90;;;;;;4856534;29;37149;-81
2022/07/25 10:44:37;;;;;;;8.05;2.90;;;23.30;99.90;;;;;;4852401;29;46944;-82
2022/07/25 10:47:11;;;;;;;11.15;3.05;;;23.10;99.90;;;;;;4856336;29;38652;-82
2022/07/25 10:49:44;;;;;;;9.38;2.92;;;22.80;99.90;;;;;;4872005;29;39384;-81
2022/07/25 10:52:18;;;;;;;10.73;2.55;;;22.70;99.90;;;;;;4855431;29;38390;-81
2022/07/25 10:54:58;;;;;;;16.40;3.28;;;22.70;99.90;;;;;;4857212;29;37341;-81
2022/07/25 10:57:25;;;;;;;9.20;2.90;;;23.00;99.90;;;;;;4861503;29;39391;-83
2022/07/25 10:59:51;;;;;;;8.60;2.13;;;23.00;99.90;;;;;;4855858;29;38798;-80
2022/07/25 11:02:18;;;;;;;8.45;2.20;;;23.00;99.90;;;;;;4872857;29;37988;-82
2022/07/25 11:04:56;;;;;;;9.25;2.20;;;23.00;99.90;;;;;;4872664;29;38090;-83
2022/07/25 11:07:23;;;;;;;10.10;2.17;;;23.00;99.90;;;;;;4858001;29;38289;-83
2022/07/25 11:09:57;;;;;;;8.65;2.13;;;23.30;99.90;;;;;;4857818;29;37831;-81
2022/07/25 11:12:23;;;;;;;8.52;2.25;;;23.40;99.90;;;;;;4875020;29;37720;-81
2022/07/25 11:14:49;;;;;;;4.07;1.70;;;23.40;99.90;;;;;;4859202;29;36188;-82
2022/07/25 11:17:21;;;;;;;7.40;1.75;;;23.30;99.90;;;;;;4876061;29;38831;-81
2022/07/25 11:20:15;;;;;;;13.75;2.10;;;23.20;99.90;;;;;;4875700;29;38583;-85
2022/07/25 11:22:41;;;;;;;6.43;1.45;;;23.20;99.90;;;;;;4855503;29;47101;-82
2022/07/25 11:25:13;;;;;;;4.38;1.40;;;23.30;99.90;;;;;;4854541;29;36733;-82
2022/07/25 11:27:39;;;;;;;;;;;23.40;99.90;;;;;;4874653;29;38978;-82
2022/07/25 11:30:19;;;;;;;5.50;1.35;;;23.60;99.90;;;;;;4876563;29;38784;-83
2022/07/25 11:32:54;;;;;;;11.02;1.98;;;23.80;99.90;;;;;;4873367;29;38233;-82
2022/07/25 11:35:24;;;;;;;5.05;1.40;;;24.10;99.90;;;;;;4872702;29;36983;-83
2022/07/25 11:37:52;;;;;;;5.78;1.20;;;24.30;99.90;;;;;;4858820;29;37967;-84
2022/07/25 11:40:19;;;;;;;5.03;1.27;;;24.00;99.90;;;;;;4849997;29;37812;-83
2022/07/25 11:42:54;;;;;;;8.52;1.77;;;23.90;99.90;;;;;;4856301;29;36826;-82
2022/07/25 11:45:29;;;;;;;10.38;1.85;;;23.90;99.90;;;;;;4874722;29;37155;-84
2022/07/25 11:48:12;;;;;;;6.00;1.60;;;24.30;99.90;;;;;;4859054;29;37853;-85
2022/07/25 11:50:41;;;;;;;7.72;1.70;;;24.90;99.90;;;;;;4858930;29;47292;-82
2022/07/25 11:53:10;;;;;;;6.03;1.63;;;25.30;99.90;;;;;;4873047;29;37822;-82
2022/07/25 11:55:41;;;;;;;7.25;1.75;;;25.80;99.90;;;;;;4874906;29;38201;-80
2022/07/25 11:58:09;;;;;;;9.93;2.33;;;25.90;99.90;;;;;;4848334;29;38794;-81
2022/07/25 12:00:43;;;;;;;13.88;2.13;;;25.50;99.90;;;;;;4863651;29;38404;-78
2022/07/25 12:03:11;;;;;;;10.02;1.60;;;25.50;99.90;;;;;;4858522;29;36946;-82
2022/07/25 12:05:38;;;;;;;11.32;2.53;;;25.50;99.90;;;;;;4858108;29;36859;-85
2022/07/25 12:08:14;;;;;;;8.10;2.13;;;25.50;99.90;;;;;;4856302;29;38575;-81
2022/07/25 12:10:42;;;;;;;11.38;2.10;;;25.50;99.90;;;;;;4857991;29;38576;-81
2022/07/25 12:13:20;;;;;;;7.85;1.75;;;25.30;99.90;;;;;;4875127;29;39054;-82
2022/07/25 12:15:46;;;;;;;7.38;1.40;;;25.30;99.90;;;;;;4858169;29;36365;-82
2022/07/25 12:18:12;;;;;;;8.70;2.10;;;25.70;99.90;;;;;;4855426;29;37660;-81
2022/07/25 12:20:41;;;;;;;9.80;1.83;;;25.70;99.90;;;;;;4856587;29;38091;-83
2022/07/25 12:23:10;;;;;;;9.32;1.60;;;25.40;99.90;;;;;;4874823;29;37799;-82
2022/07/25 12:25:43;;;;;;;4.75;1.52;;;25.10;99.90;;;;;;4875136;29;37386;-82
2022/07/25 12:28:11;;;;;;;6.85;1.52;;;25.10;99.90;;;;;;4871640;29;38935;-82
2022/07/25 12:30:38;;;;;;;6.82;1.77;;;25.00;99.90;;;;;;4873548;29;38327;-83
2022/07/25 12:33:05;;;;;;;6.15;1.17;;;24.70;99.90;;;;;;4875055;29;39143;-83
2022/07/25 12:35:31;;;;;;;8.35;2.17;;;24.80;99.90;;;;;;4876626;29;36822;-81
2022/07/25 12:37:57;;;;;;;8.20;1.80;;;25.40;99.90;;;;;;4856657;29;38131;-82
2022/07/25 12:40:23;;;;;;;6.03;1.30;;;25.50;99.90;;;;;;4858882;29;37078;-81
2022/07/25 12:42:50;;;;;;;6.88;1.67;;;25.50;99.90;;;;;;4858689;29;38558;-81
2022/07/25 12:45:16;;;;;;;11.23;1.90;;;25.00;99.90;;;;;;4856403;29;36542;-83
2022/07/25 12:47:44;;;;;;;10.95;1.98;;;24.70;99.90;;;;;;4859148;29;38317;-81
2022/07/25 12:50:11;;;;;;;7.45;1.73;;;25.10;99.90;;;;;;4855157;29;37512;-81
2022/07/25 12:52:37;;;;;;;8.77;1.83;;;25.30;99.90;;;;;;4875098;29;37715;-82